createdAt,value
2022-09-26T00:01:36.591Z,68.81
2022-09-26T00:04:10.180Z,68.08
2022-09-26T00:06:37.023Z,69.46
2022-09-26T00:09:04.007Z,68.74
2022-09-26T00:11:32.838Z,68.42
2022-09-26T00:14:05.951Z,68.22
2022-09-26T00:16:33.300Z,67.91
2022-09-26T00:19:00.336Z,67.83
2022-09-26T00:21:29.390Z,68.02
2022-09-26T00:23:56.782Z,68.33
2022-09-26T00:26:25.863Z,68.67
2022-09-26T00:28:53.142Z,68.27
2022-09-26T00:31:23.277Z,68.21
2022-09-26T00:33:50.046Z,68.36
2022-09-26T00:36:17.152Z,68.55
2022-09-26T00:38:44.202Z,68.50
2022-09-26T00:41:11.366Z,68.52
2022-09-26T00:43:43.190Z,68.09
2022-09-26T00:46:41.013Z,67.76
2022-09-26T00:49:25.721Z,68.46
2022-09-26T00:52:02.087Z,70.04
2022-09-26T00:54:31.145Z,68.82
2022-09-26T00:57:04.222Z,68.97
2022-09-26T00:59:32.996Z,68.75
2022-09-26T01:02:00.350Z,68.42
2022-09-26T01:04:29.096Z,68.41
2022-09-26T01:06:58.295Z,67.96
2022-09-26T01:09:26.133Z,68.07
2022-09-26T01:11:53.787Z,68.51
2022-09-26T01:14:21.663Z,68.80
2022-09-26T01:16:54.023Z,68.54
2022-09-26T01:19:50.488Z,68.49
2022-09-26T01:22:39.360Z,68.31
2022-09-26T01:25:18.523Z,67.96
2022-09-26T01:28:02.872Z,67.99
2022-09-26T01:30:41.867Z,68.89
2022-09-26T01:33:17.505Z,70.01
2022-09-26T01:35:44.055Z,73.25
2022-09-26T01:38:44.642Z,74.50
2022-09-26T01:41:20.247Z,74.81
2022-09-26T01:44:20.507Z,75.18
2022-09-26T01:46:54.618Z,73.95
2022-09-26T01:49:31.739Z,71.97
2022-09-26T01:52:39.977Z,71.47
2022-09-26T01:55:14.319Z,72.96
2022-09-26T01:57:47.613Z,73.28
2022-09-26T02:00:15.381Z,71.80
2022-09-26T02:02:45.847Z,72.26
2022-09-26T02:05:28.813Z,72.49
2022-09-26T02:08:17.954Z,71.66
2022-09-26T02:10:49.299Z,71.96
2022-09-26T02:13:37.295Z,72.11
2022-09-26T02:16:19.534Z,72.58
2022-09-26T02:19:00.525Z,72.25
2022-09-26T02:21:27.298Z,72.49
2022-09-26T02:23:54.967Z,73.31
2022-09-26T02:26:23.191Z,74.41
2022-09-26T02:28:50.326Z,74.27
2022-09-26T02:31:22.844Z,74.15
2022-09-26T02:33:50.429Z,72.09
2022-09-26T02:36:19.627Z,71.30
2022-09-26T02:38:46.247Z,70.71
2022-09-26T02:41:43.359Z,71.17
2022-09-26T02:44:43.658Z,70.83
2022-09-26T02:47:39.996Z,70.92
2022-09-26T02:50:33.599Z,71.70
2022-09-26T02:53:10.302Z,72.58
2022-09-26T02:56:04.316Z,73.62
2022-09-26T02:58:47.436Z,74.32
2022-09-26T03:01:27.642Z,72.65
2022-09-26T03:04:11.272Z,72.08
2022-09-26T03:06:42.044Z,71.82
2022-09-26T03:09:10.335Z,72.01
2022-09-26T03:11:38.424Z,71.71
2022-09-26T03:14:05.376Z,71.66
2022-09-26T03:16:36.980Z,71.55
2022-09-26T03:19:05.645Z,71.39
2022-09-26T03:21:36.188Z,70.72
2022-09-26T03:24:03.917Z,70.10
2022-09-26T03:26:32.734Z,70.10
2022-09-26T03:28:59.420Z,70.53
2022-09-26T03:31:26.215Z,70.46
2022-09-26T03:33:52.845Z,70.79
2022-09-26T03:36:21.839Z,70.52
2022-09-26T03:38:48.713Z,70.11
2022-09-26T03:41:15.282Z,69.97
2022-09-26T03:43:43.814Z,69.94
2022-09-26T03:46:12.575Z,71.29
2022-09-26T03:48:39.605Z,71.46
2022-09-26T03:51:09.166Z,71.90
2022-09-26T03:53:38.514Z,72.20
2022-09-26T03:56:16.857Z,72.23
2022-09-26T03:58:44.048Z,72.41
2022-09-26T04:01:13.893Z,72.26
2022-09-26T04:03:47.834Z,72.38
2022-09-26T04:06:20.250Z,71.92
2022-09-26T04:08:49.324Z,72.30
2022-09-26T04:11:19.505Z,72.02
2022-09-26T04:13:51.797Z,73.22
2022-09-26T04:16:22.854Z,74.04
2022-09-26T04:18:50.337Z,73.60
2022-09-26T04:21:17.221Z,73.48
2022-09-26T04:23:44.491Z,74.15
2022-09-26T04:26:17.509Z,74.56
2022-09-26T04:28:47.511Z,74.78
2022-09-26T04:31:14.296Z,74.70
2022-09-26T04:33:40.930Z,74.22
2022-09-26T04:36:10.368Z,75.12
2022-09-26T04:38:38.071Z,74.76
2022-09-26T04:41:10.636Z,74.92
2022-09-26T04:43:38.083Z,74.40
2022-09-26T04:46:17.186Z,74.39
2022-09-26T04:48:48.616Z,74.49
2022-09-26T04:51:17.019Z,74.48
2022-09-26T04:53:43.970Z,74.54
2022-09-26T04:56:13.844Z,75.01
2022-09-26T04:58:42.144Z,74.30
2022-09-26T05:01:14.031Z,74.86
2022-09-26T05:03:41.889Z,75.16
2022-09-26T05:06:10.212Z,74.97
2022-09-26T05:08:46.483Z,74.88
2022-09-26T05:11:15.018Z,74.31
2022-09-26T05:13:42.178Z,74.32
2022-09-26T05:16:10.791Z,74.21
2022-09-26T05:18:39.049Z,72.98
2022-09-26T05:21:07.606Z,73.07
2022-09-26T05:23:53.519Z,74.02
2022-09-26T05:26:47.960Z,72.68
2022-09-26T05:29:16.206Z,71.91
2022-09-26T05:31:43.554Z,71.68
2022-09-26T05:34:16.889Z,71.69
2022-09-26T05:36:45.328Z,71.38
2022-09-26T05:39:30.566Z,71.34
2022-09-26T05:41:59.009Z,71.43
2022-09-26T05:44:25.861Z,70.98
2022-09-26T05:46:52.541Z,70.81
2022-09-26T05:49:19.267Z,70.60
2022-09-26T05:51:46.603Z,70.51
2022-09-26T05:54:13.628Z,70.29
2022-09-26T05:56:40.605Z,70.41
2022-09-26T05:59:07.320Z,70.02
2022-09-26T06:01:34.515Z,71.64
2022-09-26T06:04:03.005Z,71.16
2022-09-26T06:06:30.143Z,70.52
2022-09-26T06:08:56.917Z,70.78
2022-09-26T06:11:28.038Z,70.54
2022-09-26T06:13:55.924Z,69.98
2022-09-26T06:16:22.864Z,70.71
2022-09-26T06:18:52.593Z,70.52
2022-09-26T06:21:20.365Z,70.96
2022-09-26T06:23:47.588Z,70.99
2022-09-26T06:26:21.695Z,70.66
2022-09-26T06:28:50.093Z,70.37
2022-09-26T06:31:18.868Z,70.16
2022-09-26T06:33:53.360Z,70.92
2022-09-26T06:36:20.376Z,70.91
2022-09-26T06:38:46.968Z,70.52
2022-09-26T06:41:15.170Z,70.07
2022-09-26T06:43:44.030Z,70.08
2022-09-26T06:46:11.967Z,69.46
2022-09-26T06:48:38.555Z,69.46
2022-09-26T06:51:05.264Z,69.26
2022-09-26T06:53:32.554Z,69.27
2022-09-26T06:55:59.716Z,69.62
2022-09-26T06:58:26.292Z,69.51
2022-09-26T07:00:53.226Z,69.21
2022-09-26T07:03:20.004Z,69.35
2022-09-26T07:05:46.863Z,69.11
2022-09-26T07:08:13.438Z,69.44
2022-09-26T07:10:40.036Z,70.02
2022-09-26T07:13:10.757Z,69.47
2022-09-26T07:15:37.569Z,69.67
2022-09-26T07:18:06.435Z,69.70
2022-09-26T07:20:37.627Z,68.93
2022-09-26T07:23:05.527Z,68.76
2022-09-26T07:25:33.482Z,68.46
2022-09-26T07:28:01.152Z,68.59
2022-09-26T07:30:28.517Z,68.90
2022-09-26T07:33:03.113Z,68.85
2022-09-26T07:35:33.964Z,69.05
2022-09-26T07:38:00.536Z,70.34
2022-09-26T07:40:27.903Z,71.77
2022-09-26T07:43:18.715Z,72.35
2022-09-26T07:46:04.755Z,72.62
2022-09-26T07:48:49.729Z,70.83
2022-09-26T07:51:16.747Z,72.27
2022-09-26T07:53:43.314Z,72.49
2022-09-26T07:56:10.598Z,72.09
2022-09-26T07:58:39.840Z,73.24
2022-09-26T08:01:11.528Z,73.96
2022-09-26T08:03:39.743Z,73.81
2022-09-26T08:06:06.655Z,73.84
2022-09-26T08:08:33.548Z,74.53
2022-09-26T08:11:03.998Z,73.32
2022-09-26T08:13:32.612Z,73.74
2022-09-26T08:16:04.899Z,74.57
2022-09-26T08:18:33.550Z,73.69
2022-09-26T08:21:03.460Z,74.59
2022-09-26T08:23:30.066Z,73.25
2022-09-26T08:25:56.643Z,73.86
2022-09-26T08:28:24.090Z,73.43
2022-09-26T08:30:50.791Z,73.34
2022-09-26T08:33:19.086Z,73.85
2022-09-26T08:35:45.739Z,73.69
2022-09-26T08:38:14.494Z,72.91
2022-09-26T08:41:11.688Z,72.17
2022-09-26T08:43:41.006Z,72.22
2022-09-26T08:46:13.372Z,72.83
2022-09-26T08:48:52.264Z,73.12
2022-09-26T08:51:39.072Z,73.97
2022-09-26T08:54:14.635Z,73.89
2022-09-26T08:56:50.040Z,75.41
2022-09-26T08:59:34.094Z,76.78
2022-09-26T09:02:05.289Z,76.61
2022-09-26T09:04:44.736Z,77.71
2022-09-26T09:07:21.165Z,77.06
2022-09-26T09:09:48.328Z,76.91
2022-09-26T09:12:32.309Z,76.95
2022-09-26T09:15:44.145Z,76.86
2022-09-26T09:18:19.562Z,76.36
2022-09-26T09:20:52.236Z,76.26
2022-09-26T09:23:37.255Z,75.65
2022-09-26T09:29:43.071Z,74.47
2022-09-26T09:32:16.412Z,75.44
2022-09-26T09:34:44.536Z,75.60
2022-09-26T09:37:17.313Z,75.42
2022-09-26T09:39:48.056Z,77.21
2022-09-26T09:42:20.463Z,73.98
2022-09-26T09:44:52.604Z,74.14
2022-09-26T09:47:19.484Z,73.82
2022-09-26T09:49:48.989Z,72.29
2022-09-26T09:52:21.337Z,70.49
2022-09-26T09:55:12.286Z,70.59
2022-09-26T09:58:00.705Z,67.15
2022-09-26T10:00:30.465Z,70.95
2022-09-26T10:03:15.100Z,72.40
2022-09-26T10:05:59.717Z,70.70
2022-09-26T10:08:35.686Z,71.11
2022-09-26T10:11:23.974Z,71.96
2022-09-26T10:13:56.718Z,74.08
2022-09-26T10:16:25.111Z,72.60
2022-09-26T10:18:59.405Z,72.40
2022-09-26T10:21:35.543Z,72.56
2022-09-26T10:24:06.794Z,70.45
2022-09-26T10:26:35.405Z,70.84
2022-09-26T10:29:08.464Z,69.12
2022-09-26T10:31:42.675Z,68.64
2022-09-26T10:34:30.543Z,67.04
2022-09-26T10:36:57.419Z,65.61
2022-09-26T10:39:49.149Z,65.83
2022-09-26T10:42:21.949Z,65.64
2022-09-26T10:44:50.746Z,66.35
2022-09-26T10:47:22.056Z,66.54
2022-09-26T10:50:03.550Z,66.10
2022-09-26T10:52:51.484Z,66.27
2022-09-26T10:55:25.646Z,66.00
2022-09-26T10:57:55.592Z,65.95
2022-09-26T11:00:36.850Z,64.85
2022-09-26T11:03:10.804Z,63.70
2022-09-26T11:05:59.222Z,64.22
2022-09-26T11:08:30.488Z,66.05
2022-09-26T11:11:00.597Z,66.60
2022-09-26T11:13:30.415Z,65.26
2022-09-26T11:16:01.385Z,62.61
2022-09-26T11:18:40.036Z,64.89
2022-09-26T11:21:28.367Z,62.02
2022-09-26T11:24:15.631Z,63.15
2022-09-26T11:26:49.280Z,61.15
2022-09-26T11:29:42.455Z,60.32
2022-09-26T11:32:17.374Z,59.90
2022-09-26T11:34:45.109Z,60.78
2022-09-26T11:37:31.601Z,61.12
2022-09-26T11:40:20.150Z,56.54
2022-09-26T11:43:14.748Z,55.47
2022-09-26T11:46:14.982Z,55.46
2022-09-26T11:49:04.831Z,54.20
2022-09-26T11:51:57.474Z,54.35
2022-09-26T11:54:58.538Z,52.04
2022-09-26T11:57:36.789Z,52.66
2022-09-26T12:00:24.480Z,51.02
2022-09-26T12:02:57.449Z,52.12
2022-09-26T12:05:27.652Z,51.22
2022-09-26T12:08:27.044Z,49.52
2022-09-26T12:11:04.788Z,49.02
2022-09-26T12:14:04.582Z,47.97
2022-09-26T12:16:37.247Z,49.08
2022-09-26T12:19:19.535Z,51.46
2022-09-26T12:22:09.072Z,50.29
2022-09-26T12:24:56.121Z,51.79
2022-09-26T12:27:39.450Z,52.11
2022-09-26T12:30:13.159Z,53.55
2022-09-26T12:32:51.567Z,52.72
2022-09-26T12:35:34.217Z,51.73
2022-09-26T12:38:25.362Z,50.35
2022-09-26T12:41:20.028Z,50.30
2022-09-26T12:44:07.913Z,48.99
2022-09-26T12:46:53.257Z,48.07
2022-09-26T12:49:22.764Z,49.25
2022-09-26T12:51:55.053Z,49.02
2022-09-26T12:54:37.151Z,49.28
2022-09-26T12:57:09.910Z,49.36
2022-09-26T12:59:45.245Z,49.57
2022-09-26T13:02:28.772Z,52.68
2022-09-26T13:05:02.096Z,53.62
2022-09-26T13:07:56.870Z,51.32
2022-09-26T13:10:54.315Z,53.96
2022-09-26T13:13:32.666Z,53.13
2022-09-26T13:16:25.420Z,53.78
2022-09-26T13:19:00.264Z,53.79
2022-09-26T13:21:44.197Z,52.12
2022-09-26T13:24:51.346Z,52.93
2022-09-26T13:27:23.751Z,51.96
2022-09-26T13:30:01.111Z,52.75
2022-09-26T13:32:38.751Z,52.46
2022-09-26T13:35:29.660Z,51.13
2022-09-26T13:38:10.138Z,51.54
2022-09-26T13:40:51.822Z,51.88
2022-09-26T13:43:53.597Z,52.24
2022-09-26T13:46:27.496Z,51.87
2022-09-26T13:49:31.819Z,52.44
2022-09-26T13:52:01.127Z,51.42
2022-09-26T13:54:32.640Z,51.41
2022-09-26T13:56:59.584Z,51.66
2022-09-26T13:59:51.533Z,49.39
2022-09-26T14:02:32.046Z,50.01
2022-09-26T14:05:01.404Z,51.33
2022-09-26T14:07:58.337Z,51.12
2022-09-26T14:10:24.878Z,51.29
2022-09-26T14:13:12.770Z,50.67
2022-09-26T14:15:51.146Z,50.76
2022-09-26T14:18:42.786Z,50.22
2022-09-26T14:21:40.300Z,49.85
2022-09-26T14:24:43.019Z,51.03
2022-09-26T14:27:09.632Z,49.87
2022-09-26T14:29:53.711Z,50.60
2022-09-26T14:32:27.584Z,50.37
2022-09-26T14:34:57.371Z,49.54
2022-09-26T14:37:26.766Z,49.50
2022-09-26T14:39:59.598Z,49.69
2022-09-26T14:42:31.821Z,49.29
2022-09-26T14:45:02.784Z,48.93
2022-09-26T14:47:43.424Z,49.45
2022-09-26T14:50:46.771Z,48.74
2022-09-26T14:53:34.070Z,49.95
2022-09-26T14:56:06.232Z,49.84
2022-09-26T14:58:46.432Z,49.63
2022-09-26T15:01:28.521Z,49.23
2022-09-26T15:04:15.196Z,49.59
2022-09-26T15:06:45.237Z,50.27
2022-09-26T15:09:21.692Z,49.76
2022-09-26T15:11:55.461Z,49.77
2022-09-26T15:14:35.451Z,51.78
2022-09-26T15:17:02.433Z,52.18
2022-09-26T15:19:35.623Z,52.24
2022-09-26T15:22:15.059Z,51.36
2022-09-26T15:24:41.739Z,51.09
2022-09-26T15:27:27.295Z,50.97
2022-09-26T15:29:58.003Z,50.77
2022-09-26T15:32:26.956Z,50.55
2022-09-26T15:34:55.509Z,50.71
2022-09-26T15:37:25.078Z,51.68
2022-09-26T15:39:51.905Z,52.39
2022-09-26T15:42:48.813Z,52.39
2022-09-26T15:45:27.538Z,51.98
2022-09-26T15:47:59.535Z,52.78
2022-09-26T15:50:31.831Z,53.77
2022-09-26T15:53:02.163Z,52.03
2022-09-26T15:55:34.109Z,53.64
2022-09-26T15:58:05.038Z,53.14
2022-09-26T16:00:40.346Z,53.28
2022-09-26T16:03:45.963Z,53.40
2022-09-26T16:06:15.420Z,54.02
2022-09-26T16:08:42.819Z,54.11
2022-09-26T16:11:10.012Z,53.71
2022-09-26T16:13:43.121Z,53.67
2022-09-26T16:16:16.345Z,54.23
2022-09-26T16:18:53.707Z,54.08
2022-09-26T16:21:24.216Z,54.56
2022-09-26T16:23:53.916Z,54.58
2022-09-26T16:26:39.255Z,54.46
2022-09-26T16:29:08.851Z,54.40
2022-09-26T16:31:44.583Z,55.39
2022-09-26T16:34:26.204Z,55.42
2022-09-26T16:36:53.233Z,55.82
2022-09-26T16:39:26.766Z,55.44
2022-09-26T16:42:12.571Z,55.11
2022-09-26T16:44:41.398Z,54.91
2022-09-26T16:47:44.126Z,54.50
2022-09-26T16:50:26.644Z,54.75
2022-09-26T16:52:54.348Z,53.91
2022-09-26T16:55:21.679Z,53.76
2022-09-26T16:57:59.785Z,54.83
2022-09-26T17:00:52.612Z,56.38
2022-09-26T17:03:21.104Z,56.46
2022-09-26T17:05:48.176Z,57.10
2022-09-26T17:08:16.268Z,57.84
2022-09-26T17:10:44.166Z,58.85
2022-09-26T17:13:23.477Z,57.61
2022-09-26T17:15:55.760Z,55.95
2022-09-26T17:18:29.370Z,55.61
2022-09-26T17:20:56.933Z,55.46
2022-09-26T17:23:39.235Z,55.75
2022-09-26T17:26:06.926Z,55.63
2022-09-26T17:28:39.959Z,56.07
2022-09-26T17:31:08.337Z,56.53
2022-09-26T17:33:40.688Z,56.05
2022-09-26T17:36:11.029Z,56.03
2022-09-26T17:38:40.350Z,55.29
2022-09-26T17:41:06.994Z,55.70
2022-09-26T17:43:34.066Z,54.98
2022-09-26T17:46:01.407Z,55.37
2022-09-26T17:48:33.243Z,55.68
2022-09-26T17:51:04.301Z,55.54
2022-09-26T17:53:37.916Z,55.82
2022-09-26T17:56:06.483Z,56.16
2022-09-26T17:58:38.157Z,55.96
2022-09-26T18:01:06.225Z,56.75
2022-09-26T18:03:36.377Z,56.23
2022-09-26T18:06:03.766Z,55.73
2022-09-26T18:08:36.467Z,56.32
2022-09-26T18:11:05.646Z,56.11
2022-09-26T18:13:37.896Z,56.18
2022-09-26T18:16:05.727Z,55.65
2022-09-26T18:18:33.066Z,55.77
2022-09-26T18:21:04.075Z,56.25
2022-09-26T18:23:43.877Z,56.27
2022-09-26T18:26:35.015Z,56.37
2022-09-26T18:29:07.733Z,56.54
2022-09-26T18:31:38.899Z,56.61
2022-09-26T18:34:11.432Z,56.62
2022-09-26T18:36:38.277Z,56.91
2022-09-26T18:39:04.901Z,57.08
2022-09-26T18:41:32.387Z,56.98
2022-09-26T18:44:00.858Z,57.54
2022-09-26T18:46:29.266Z,57.67
2022-09-26T18:48:58.384Z,57.00
2022-09-26T18:51:28.263Z,57.62
2022-09-26T18:53:54.983Z,57.29
2022-09-26T18:56:39.752Z,57.15
2022-09-26T18:59:10.321Z,57.10
2022-09-26T19:01:41.488Z,57.38
2022-09-26T19:04:18.672Z,57.46
2022-09-26T19:06:48.480Z,57.51
2022-09-26T19:09:18.396Z,57.61
2022-09-26T19:11:45.894Z,57.62
2022-09-26T19:14:20.501Z,59.57
2022-09-26T19:16:48.664Z,59.28
2022-09-26T19:19:16.040Z,58.83
2022-09-26T19:21:44.575Z,58.51
2022-09-26T19:24:20.671Z,59.54
2022-09-26T19:26:54.499Z,59.43
2022-09-26T19:29:27.387Z,59.63
2022-09-26T19:31:54.188Z,61.16
2022-09-26T19:34:21.032Z,62.68
2022-09-26T19:36:47.669Z,63.62
2022-09-26T19:39:15.743Z,62.21
2022-09-26T19:41:42.577Z,61.56
2022-09-26T19:44:09.606Z,62.63
2022-09-26T19:46:38.350Z,62.40
2022-09-26T19:49:06.577Z,62.72
2022-09-26T19:51:39.571Z,62.37
2022-09-26T19:54:06.726Z,62.91
2022-09-26T19:56:34.913Z,62.47
2022-09-26T19:59:01.962Z,62.02
2022-09-26T20:01:28.648Z,61.14
2022-09-26T20:03:55.335Z,60.39
2022-09-26T20:06:24.996Z,60.45
2022-09-26T20:08:57.638Z,59.71
2022-09-26T20:11:27.220Z,59.65
2022-09-26T20:14:12.362Z,60.00
2022-09-26T20:16:42.322Z,59.91
2022-09-26T20:19:20.132Z,61.39
2022-09-26T20:21:46.795Z,60.33
2022-09-26T20:24:18.587Z,60.33
2022-09-26T20:26:46.773Z,60.04
2022-09-26T20:29:15.663Z,60.17
2022-09-26T20:31:43.701Z,59.89
2022-09-26T20:34:11.671Z,60.08
2022-09-26T20:36:42.430Z,60.16
2022-09-26T20:39:15.995Z,60.58
2022-09-26T20:41:43.668Z,60.66
2022-09-26T20:44:28.404Z,60.06
2022-09-26T20:46:58.975Z,60.65
2022-09-26T20:49:32.509Z,60.40
2022-09-26T20:52:00.480Z,60.84
2022-09-26T20:54:29.757Z,61.92
2022-09-26T20:56:57.708Z,62.61
2022-09-26T20:59:25.490Z,62.41
2022-09-26T21:01:54.111Z,61.97
2022-09-26T21:04:30.008Z,61.66
2022-09-26T21:06:56.696Z,63.57
2022-09-26T21:09:23.571Z,62.94
2022-09-26T21:11:50.196Z,61.85
2022-09-26T21:14:18.251Z,62.02
2022-09-26T21:16:50.400Z,62.04
2022-09-26T21:19:24.213Z,61.58
2022-09-26T21:21:53.848Z,61.80
2022-09-26T21:24:31.057Z,62.12
2022-09-26T21:26:57.744Z,63.21
2022-09-26T21:29:24.478Z,62.78
2022-09-26T21:31:53.457Z,62.31
2022-09-26T21:34:26.248Z,61.95
2022-09-26T21:36:55.456Z,64.29
2022-09-26T21:39:24.792Z,63.44
2022-09-26T21:41:54.448Z,64.71
2022-09-26T21:44:27.522Z,63.32
2022-09-26T21:46:54.151Z,63.12
2022-09-26T21:49:20.752Z,63.25
2022-09-26T21:51:51.660Z,63.42
2022-09-26T21:54:24.660Z,63.35
2022-09-26T21:57:00.958Z,62.82
2022-09-26T21:59:27.799Z,65.17
2022-09-26T22:01:54.477Z,66.79
2022-09-26T22:04:22.494Z,64.49
2022-09-26T22:06:49.109Z,65.55
2022-09-26T22:09:15.854Z,63.66
2022-09-26T22:11:42.601Z,63.19
2022-09-26T22:14:09.230Z,63.50
2022-09-26T22:16:35.880Z,63.41
2022-09-26T22:19:04.321Z,63.07
2022-09-26T22:21:31.677Z,63.28
2022-09-26T22:23:58.511Z,63.77
2022-09-26T22:26:25.092Z,63.63
2022-09-26T22:28:52.052Z,63.95
2022-09-26T22:31:18.895Z,63.76
2022-09-26T22:33:45.723Z,63.92
2022-09-26T22:36:12.688Z,63.05
2022-09-26T22:38:40.109Z,63.69
2022-09-26T22:41:07.137Z,62.76
2022-09-26T22:43:36.073Z,62.31
2022-09-26T22:46:11.124Z,61.66
2022-09-26T22:48:43.711Z,60.96
2022-09-26T22:51:10.617Z,61.14
2022-09-26T22:53:39.040Z,61.07
2022-09-26T22:56:08.276Z,60.33
2022-09-26T22:58:40.095Z,60.70
2022-09-26T23:01:09.844Z,60.86
2022-09-26T23:03:36.879Z,61.13
2022-09-26T23:06:04.869Z,61.98
2022-09-26T23:08:32.712Z,63.31
2022-09-26T23:11:01.192Z,64.88
2022-09-26T23:13:32.320Z,65.07
2022-09-26T23:16:28.741Z,63.80
2022-09-26T23:18:56.036Z,63.39
2022-09-26T23:21:25.760Z,64.30
2022-09-26T23:23:55.078Z,63.94
2022-09-26T23:26:23.758Z,63.22
2022-09-26T23:28:51.838Z,63.01
2022-09-26T23:31:18.997Z,62.37
2022-09-26T23:33:45.789Z,62.64
2022-09-26T23:36:13.063Z,62.30
2022-09-26T23:38:40.757Z,61.87
2022-09-26T23:41:08.912Z,61.73
2022-09-26T23:43:36.414Z,61.98
2022-09-26T23:46:03.800Z,62.57
2022-09-26T23:48:30.988Z,62.31
2022-09-26T23:50:58.280Z,62.65
2022-09-26T23:53:25.374Z,62.37
2022-09-26T23:55:52.538Z,61.68
2022-09-26T23:58:19.383Z,60.73
